Time;durP1;ratioP1;P1;durP2;ratioP2;P2;SDS_P1;SDS_P2;PMS_P1;PMS_P2;Temp;Humidity;BMP_temperature;BMP_pressure;BME280_temperature;BME280_humidity;BME280_pressure;Samples;Min_cycle;Max_cycle;Signal;HPM_P1;HPM_P2
2023/09/10 00:01:10;;;;;;;;;;;;;;;17.01;72.03;100521.06;5021677;28;2252;-78
2023/09/10 00:04:02;;;;;;;;;;;;;;;17.01;71.98;100519.16;5021995;28;2249;-78
2023/09/10 00:06:54;;;;;;;;;;;;;;;17.00;72.11;100514.81;5014712;28;2154;-77
2023/09/10 00:09:46;;;;;;;;;;;;;;;17.01;72.07;100523.78;5023910;28;2039;-76
2023/09/10 00:12:37;;;;;;;;;;;;;;;17.01;71.88;100527.31;5019334;28;1524;-76
2023/09/10 00:15:29;;;;;;;;;;;;;;;17.01;72.01;100532.75;5024210;28;2046;-77
2023/09/10 00:18:20;;;;;;;;;;;;;;;17.01;72.13;100524.59;5029604;28;1016;-77
2023/09/10 00:21:13;;;;;;;;;;;;;;;17.01;72.14;100529.22;5020318;28;2515;-76
2023/09/10 00:24:04;;;;;;;;;;;;;;;17.00;72.21;100525.69;5012244;28;2554;-78
2023/09/10 00:26:56;;;;;;;;;;;;;;;17.01;72.00;100531.94;5013524;28;2368;-78
2023/09/10 00:29:48;;;;;;;;;;;;;;;17.01;72.11;100526.50;5010038;28;5700;-76
2023/09/10 00:32:40;;;;;;;;;;;;;;;17.00;71.95;100522.13;5024953;28;5047;-76
2023/09/10 00:35:32;;;;;;;;;;;;;;;17.00;71.99;100527.56;5026846;28;2126;-76
2023/09/10 00:38:24;;;;;;;;;;;;;;;17.00;72.12;100524.84;5026197;28;1520;-76
2023/09/10 00:41:16;;;;;;;;;;;;;;;17.00;72.05;100520.25;5023863;28;1548;-77
2023/09/10 00:44:08;;;;;;;;;;;;;;;17.00;72.07;100522.97;5027414;28;2110;-77
2023/09/10 00:46:59;;;;;;;;;;;;;;;17.00;72.09;100530.28;5024242;28;1549;-77
2023/09/10 00:49:52;;;;;;;;;;;;;;;17.00;72.01;100525.69;5030210;28;4933;-78
2023/09/10 00:52:44;;;;;;;;;;;;;;;17.00;71.99;100522.13;5013909;28;2080;-78
2023/09/10 00:55:36;;;;;;;;;;;;;;;16.99;72.09;100515.06;5008310;28;2527;-77
2023/09/10 00:58:28;;;;;;;;;;;;;;;16.99;71.95;100521.31;5016572;28;2262;-77
2023/09/10 01:01:20;;;;;;;;;;;;;;;16.99;72.05;100523.22;5011559;28;2179;-77
2023/09/10 01:04:12;;;;;;;;;;;;;;;16.98;72.01;100518.88;5013089;28;2236;-77
2023/09/10 01:07:04;;;;;;;;;;;;;;;16.98;71.98;100519.69;5016753;28;2233;-76
2023/09/10 01:09:56;;;;;;;;;;;;;;;16.98;72.16;100527.84;5022676;28;2286;-76
2023/09/10 01:12:47;;;;;;;;;;;;;;;16.98;71.91;100527.03;5018800;28;2337;-77
2023/09/10 01:15:40;;;;;;;;;;;;;;;16.98;72.00;100533.28;5012473;28;2222;-77
2023/09/10 01:18:32;;;;;;;;;;;;;;;16.99;71.98;100528.66;5018961;28;2197;-77
2023/09/10 01:21:24;;;;;;;;;;;;;;;16.99;72.06;100525.94;5017070;28;2197;-77
2023/09/10 01:24:16;;;;;;;;;;;;;;;16.97;72.03;100520.78;5017578;28;2127;-76
2023/09/10 01:27:08;;;;;;;;;;;;;;;16.97;71.95;100522.66;5014717;28;2362;-75
2023/09/10 01:30:00;;;;;;;;;;;;;;;16.98;72.00;100527.03;5020238;28;2379;-77
2023/09/10 01:32:52;;;;;;;;;;;;;;;16.96;72.14;100521.84;5013254;28;2161;-76
2023/09/10 01:35:44;;;;;;;;;;;;;;;16.98;72.00;100527.03;5015427;28;2467;-78
2023/09/10 01:38:36;;;;;;;;;;;;;;;16.97;71.98;100528.09;5015310;28;2121;-76
2023/09/10 01:41:28;;;;;;;;;;;;;;;16.97;71.79;100528.94;5014047;28;2277;-77
2023/09/10 01:44:20;;;;;;;;;;;;;;;16.97;71.99;100528.09;5018531;28;2281;-76
2023/09/10 01:47:12;;;;;;;;;;;;;;;16.97;71.78;100528.94;5014513;28;2194;-76
2023/09/10 01:50:04;;;;;;;;;;;;;;;16.96;72.01;100519.13;5017275;28;2258;-76
2023/09/10 01:52:56;;;;;;;;;;;;;;;16.96;71.84;100519.13;5011498;28;2246;-78
2023/09/10 01:55:48;;;;;;;;;;;;;;;16.97;71.97;100512.63;5010847;28;2457;-75
2023/09/10 01:58:40;;;;;;;;;;;;;;;16.96;71.96;100508.25;5006807;28;2543;-77
2023/09/10 02:01:32;;;;;;;;;;;;;;;16.96;72.00;100504.72;5013554;28;2241;-78
2023/09/10 02:04:24;;;;;;;;;;;;;;;16.96;71.83;100505.53;5012125;28;2190;-77
2023/09/10 02:07:16;;;;;;;;;;;;;;;16.97;71.88;100509.91;5010682;28;2218;-77
2023/09/10 02:10:08;;;;;;;;;;;;;;;16.95;71.86;100512.06;5008965;28;2444;-77
2023/09/10 02:13:00;;;;;;;;;;;;;;;16.96;71.69;100507.44;5013236;28;2644;-78
2023/09/10 02:15:52;;;;;;;;;;;;;;;16.95;71.93;100509.34;5017083;28;2194;-77
2023/09/10 02:18:44;;;;;;;;;;;;;;;16.95;71.97;100512.06;5010552;28;2302;-76
2023/09/10 02:21:36;;;;;;;;;;;;;;;16.95;71.84;100513.97;5010901;28;2158;-78
2023/09/10 02:24:28;;;;;;;;;;;;;;;16.95;71.86;100513.97;5011538;28;2223;-78
2023/09/10 02:27:20;;;;;;;;;;;;;;;16.95;71.88;100519.41;5015131;28;2116;-77
2023/09/10 02:30:12;;;;;;;;;;;;;;;16.94;71.99;100518.59;5012492;28;2087;-77
2023/09/10 02:33:04;;;;;;;;;;;;;;;16.95;71.92;100516.69;5012736;28;2214;-78
2023/09/10 02:35:55;;;;;;;;;;;;;;;16.95;71.85;100514.78;5025004;28;2337;-78
2023/09/10 02:38:48;;;;;;;;;;;;;;;16.94;71.79;100518.59;5028843;28;2497;-78
2023/09/10 02:41:40;;;;;;;;;;;;;;;16.93;71.85;100522.38;5026229;28;1505;-76
2023/09/10 02:44:31;;;;;;;;;;;;;;;16.94;71.92;100517.75;5026194;28;1971;-76
2023/09/10 02:47:24;;;;;;;;;;;;;;;16.93;71.95;100514.22;5025185;28;1933;-76
2023/09/10 02:50:16;;;;;;;;;;;;;;;16.93;71.77;100514.22;5028964;28;1533;-75
2023/09/10 02:53:07;;;;;;;;;;;;;;;16.93;71.88;100522.38;5032855;28;1590;-76
2023/09/10 02:56:00;;;;;;;;;;;;;;;16.93;71.73;100521.56;5029420;28;1856;-76
2023/09/10 02:58:52;;;;;;;;;;;;;;;16.92;71.87;100518.03;5024188;28;1800;-76
2023/09/10 03:01:44;;;;;;;;;;;;;;;16.94;71.86;100523.19;5018169;28;6182;-76
2023/09/10 03:04:36;;;;;;;;;;;;;;;16.92;71.82;100512.59;5026693;28;1906;-76
2023/09/10 03:07:28;;;;;;;;;;;;;;;16.92;71.86;100507.13;5011340;28;4962;-76
2023/09/10 03:10:20;;;;;;;;;;;;;;;16.93;71.76;100514.22;5010902;28;2215;-76
2023/09/10 03:13:12;;;;;;;;;;;;;;;16.93;71.76;100508.78;5013538;28;2247;-77
2023/09/10 03:16:04;;;;;;;;;;;;;;;16.91;71.55;100516.41;5011484;28;2242;-77
2023/09/10 03:18:56;;;;;;;;;;;;;;;16.93;71.76;100521.56;5018902;28;4650;-78
2023/09/10 03:21:48;;;;;;;;;;;;;;;16.92;71.63;100520.75;5012479;28;2228;-78
2023/09/10 03:24:40;;;;;;;;;;;;;;;16.92;71.81;100525.38;5009989;28;2215;-79
2023/09/10 03:27:32;;;;;;;;;;;;;;;16.92;71.60;100520.75;5010737;28;2219;-75
2023/09/10 03:30:24;;;;;;;;;;;;;;;16.92;71.54;100522.66;5011147;28;2237;-77
2023/09/10 03:33:16;;;;;;;;;;;;;;;16.91;71.62;100516.41;5015300;28;2289;-76
2023/09/10 03:36:09;;;;;;;;;;;;;;;16.90;71.63;100512.00;5012567;28;2342;-76
2023/09/10 03:39:00;;;;;;;;;;;;;;;16.91;71.58;100523.72;5012069;28;2285;-77
2023/09/10 03:41:52;;;;;;;;;;;;;;;16.91;71.51;100523.72;5008531;28;2488;-76
2023/09/10 03:44:44;;;;;;;;;;;;;;;16.91;71.50;100524.56;5014966;28;2139;-77
2023/09/10 03:47:36;;;;;;;;;;;;;;;16.91;71.27;100516.41;5018556;28;2196;-77
2023/09/10 03:50:28;;;;;;;;;;;;;;;16.90;71.41;100513.91;5015917;28;2139;-78
2023/09/10 03:53:20;;;;;;;;;;;;;;;16.90;71.39;100522.09;5009413;28;2432;-78
2023/09/10 03:56:12;;;;;;;;;;;;;;;16.90;71.38;100519.38;5010017;28;2616;-77
2023/09/10 03:59:04;;;;;;;;;;;;;;;16.89;71.33;100524.00;5010647;28;2428;-76
2023/09/10 04:01:59;;;;;;;;;;;;;;;16.89;71.33;100528.63;5009491;28;2536;-76
2023/09/10 04:04:51;;;;;;;;;;;;;;;16.56;71.39;100481.59;5012356;28;2272;-76
2023/09/10 04:07:43;;;;;;;;;;;;;;;16.89;71.32;100537.59;5011693;28;2476;-77
2023/09/10 04:10:36;;;;;;;;;;;;;;;16.88;71.38;100532.41;5010250;28;2107;-77
2023/09/10 04:13:28;;;;;;;;;;;;;;;16.88;71.41;100535.13;5010161;28;2456;-76
2023/09/10 04:16:20;;;;;;;;;;;;;;;16.88;71.33;100527.78;5008421;28;2624;-76
2023/09/10 04:19:12;;;;;;;;;;;;;;;16.88;71.39;100527.78;5019770;28;2250;-77
2023/09/10 04:22:04;;;;;;;;;;;;;;;16.88;71.29;100526.94;5025806;28;1917;-77
2023/09/10 04:24:56;;;;;;;;;;;;;;;16.88;71.29;100537.84;5025317;28;2175;-78
2023/09/10 04:27:48;;;;;;;;;;;;;;;16.88;71.22;100540.56;5011062;28;2503;-78
2023/09/10 04:30:40;;;;;;;;;;;;;;;16.87;71.28;100528.03;5026329;28;2272;-76
2023/09/10 04:33:32;;;;;;;;;;;;;;;16.87;71.02;100531.59;5019662;28;1478;-77
2023/09/10 04:36:24;;;;;;;;;;;;;;;16.88;71.25;100513.34;5025929;28;2117;-77
2023/09/10 04:39:17;;;;;;;;;;;;;;;16.87;71.22;100514.44;5027228;28;1579;-77
2023/09/10 04:42:08;;;;;;;;;;;;;;;16.87;71.18;100509.00;5025640;28;1599;-77
2023/09/10 04:45:00;;;;;;;;;;;;;;;16.86;71.07;100513.63;5029725;28;1976;-78
2023/09/10 04:47:52;;;;;;;;;;;;;;;16.87;71.15;100509.81;5010663;28;2460;-75
2023/09/10 04:50:44;;;;;;;;;;;;;;;16.86;71.27;100510.91;5008997;28;2635;-78
2023/09/10 04:53:36;;;;;;;;;;;;;;;16.86;71.08;100516.34;5009706;28;2548;-76
2023/09/10 04:56:28;;;;;;;;;;;;;;;16.86;71.23;100507.38;5007837;28;2247;-76
2023/09/10 04:59:20;;;;;;;;;;;;;;;16.85;71.23;100511.16;5011245;28;2222;-77
2023/09/10 05:02:12;;;;;;;;;;;;;;;16.86;71.17;100529.13;5011694;28;3613;-76
2023/09/10 05:05:05;;;;;;;;;;;;;;;16.85;71.23;100531.00;5018320;28;2232;-77
2023/09/10 05:07:56;;;;;;;;;;;;;;;16.85;71.17;100524.75;5023291;28;1725;-76
2023/09/10 05:10:48;;;;;;;;;;;;;;;16.84;71.09;100529.38;5017454;28;1607;-77
2023/09/10 05:13:39;;;;;;;;;;;;;;;16.85;71.11;100513.88;5022458;28;1692;-74
2023/09/10 05:16:31;;;;;;;;;;;;;;;16.84;71.26;100521.22;5019367;28;1556;-76
2023/09/10 05:19:23;;;;;;;;;;;;;;;16.85;71.19;100530.19;5018716;28;1529;-75
2023/09/10 05:22:16;;;;;;;;;;;;;;;16.83;71.28;100525.03;5022742;28;1991;-76
2023/09/10 05:25:08;;;;;;;;;;;;;;;16.84;71.22;100526.66;5028659;28;1903;-77
2023/09/10 05:28:00;;;;;;;;;;;;;;;16.84;71.15;100531.28;5029092;28;1814;-78
2023/09/10 05:30:52;;;;;;;;;;;;;;;16.86;71.15;100540.03;5022445;28;6338;-78
2023/09/10 05:33:44;;;;;;;;;;;;;;;16.83;71.03;100535.09;5023764;28;4589;-76
2023/09/10 05:36:36;;;;;;;;;;;;;;;16.84;71.12;100534.81;5023297;28;4375;-77
2023/09/10 05:39:28;;;;;;;;;;;;;;;16.83;71.23;100533.19;5030759;28;1607;-76
2023/09/10 05:42:20;;;;;;;;;;;;;;;16.83;71.04;100543.25;5028197;28;2046;-78
2023/09/10 05:45:12;;;;;;;;;;;;;;;16.82;70.95;100539.69;5027302;28;1903;-77
2023/09/10 05:48:04;;;;;;;;;;;;;;;16.82;71.13;100545.13;5031128;28;1611;-77
2023/09/10 05:50:56;;;;;;;;;;;;;;;16.81;70.94;100554.38;5024647;28;1374;-76
2023/09/10 05:53:48;;;;;;;;;;;;;;;16.82;70.96;100557.91;5029749;28;1984;-77
2023/09/10 05:56:40;;;;;;;;;;;;;;;16.82;71.06;100553.28;5015163;28;2118;-78
2023/09/10 05:59:32;;;;;;;;;;;;;;;16.82;71.10;100550.56;5016177;28;2262;-77
2023/09/10 06:02:24;;;;;;;;;;;;;;;16.80;71.13;100542.69;5026168;28;2131;-77
2023/09/10 06:05:16;;;;;;;;;;;;;;;16.79;70.72;100543.78;5031668;28;1971;-77
2023/09/10 06:08:08;;;;;;;;;;;;;;;16.80;71.00;100545.41;5026401;28;1788;-77
2023/09/10 06:11:00;;;;;;;;;;;;;;;16.80;71.06;100545.41;5033372;28;1670;-77
2023/09/10 06:13:52;;;;;;;;;;;;;;;16.80;71.03;100552.75;5032286;28;1838;-77
2023/09/10 06:16:44;;;;;;;;;;;;;;;16.79;71.13;100546.50;5022073;28;1350;-78
2023/09/10 06:19:36;;;;;;;;;;;;;;;16.78;71.05;100558.44;5027602;28;881;-78
2023/09/10 06:22:28;;;;;;;;;;;;;;;16.80;71.10;100555.47;5022623;28;2480;-77
2023/09/10 06:25:20;;;;;;;;;;;;;;;16.80;71.11;100548.13;5021063;28;3771;-78
2023/09/10 06:28:12;;;;;;;;;;;;;;;16.79;71.02;100543.78;5016188;28;2590;-79
2023/09/10 06:31:05;;;;;;;;;;;;;;;16.78;70.90;100533.97;5014101;28;2257;-75
2023/09/10 06:33:57;;;;;;;;;;;;;;;16.78;70.91;100539.41;5016652;28;2277;-76
2023/09/10 06:36:48;;;;;;;;;;;;;;;16.79;70.92;100549.22;5029219;28;2107;-76
2023/09/10 06:39:40;;;;;;;;;;;;;;;16.78;70.80;100555.72;5033835;28;1315;-77
2023/09/10 06:42:32;;;;;;;;;;;;;;;16.78;70.96;100557.63;5030302;28;2715;-77
2023/09/10 06:45:24;;;;;;;;;;;;;;;16.78;70.99;100549.47;5026905;28;1902;-75
2023/09/10 06:48:16;;;;;;;;;;;;;;;16.67;78.18;100558.59;5026059;28;1973;-77
2023/09/10 06:51:08;;;;;;;;;;;;;;;16.72;75.70;100564.09;5017990;28;2250;-75
2023/09/10 06:54:00;;;;;;;;;;;;;;;16.76;74.07;100573.38;5014903;28;2241;-78
2023/09/10 06:56:52;;;;;;;;;;;;;;;16.77;73.13;100564.16;5015006;28;2135;-77
2023/09/10 06:59:44;;;;;;;;;;;;;;;16.77;72.52;100575.84;5009996;28;2263;-76
2023/09/10 07:02:36;;;;;;;;;;;;;;;16.77;72.38;100578.56;5010750;28;2659;-76
2023/09/10 07:05:28;;;;;;;;;;;;;;;16.77;72.29;100588.63;5016563;28;2502;-76
2023/09/10 07:08:20;;;;;;;;;;;;;;;16.77;72.16;100594.06;5011488;28;2107;-78
2023/09/10 07:11:12;;;;;;;;;;;;;;;16.76;72.11;100593.22;5012629;28;3671;-75
2023/09/10 07:14:06;;;;;;;;;;;;;;;16.76;72.07;100603.28;5012397;28;2131;-77
2023/09/10 07:16:58;;;;;;;;;;;;;;;16.77;71.85;100604.97;5012434;28;2176;-78
2023/09/10 07:19:50;;;;;;;;;;;;;;;16.76;71.87;100601.38;5012429;28;2223;-76
2023/09/10 07:22:42;;;;;;;;;;;;;;;16.76;71.82;100603.28;5014738;28;2210;-75
2023/09/10 07:25:34;;;;;;;;;;;;;;;16.75;71.69;100612.50;5012002;28;2227;-77
2023/09/10 07:28:26;;;;;;;;;;;;;;;16.76;71.58;100611.44;5017115;28;2302;-76
2023/09/10 07:31:18;;;;;;;;;;;;;;;16.75;71.67;100610.59;5013355;28;2210;-77
2023/09/10 07:34:10;;;;;;;;;;;;;;;16.76;71.75;100616.91;5012300;28;2112;-75
2023/09/10 07:37:02;;;;;;;;;;;;;;;16.75;71.52;100621.47;5013648;28;2206;-75
2023/09/10 07:39:54;;;;;;;;;;;;;;;16.76;71.61;100619.63;5012909;28;2106;-76
2023/09/10 07:42:46;;;;;;;;;;;;;;;16.75;71.55;100616.03;5012158;28;2134;-75
2023/09/10 07:45:38;;;;;;;;;;;;;;;16.75;71.47;100617.94;5014860;28;2729;-76
2023/09/10 07:48:29;;;;;;;;;;;;;;;16.75;71.46;100624.19;4972479;28;2129;-75
2023/09/10 07:51:21;;;;;;;;;;;;;;;16.75;71.43;100621.47;4974099;28;2216;-78
2023/09/10 07:54:13;;;;;;;;;;;;;;;16.75;71.37;100621.47;4972896;28;2495;-76
2023/09/10 07:57:05;;;;;;;;;;;;;;;16.73;71.36;100633.69;4973604;28;2125;-75
2023/09/10 07:59:57;;;;;;;;;;;;;;;16.73;71.30;100630.97;4974493;28;2232;-78
2023/09/10 08:02:49;;;;;;;;;;;;;;;16.74;71.32;100636.16;4971001;28;5488;-77
2023/09/10 08:05:41;;;;;;;;;;;;;;;16.74;71.25;100641.63;4972031;28;2340;-75
2023/09/10 08:08:33;;;;;;;;;;;;;;;16.74;71.21;100640.78;4973900;28;5153;-76
2023/09/10 08:11:25;;;;;;;;;;;;;;;16.74;71.26;100643.50;4973977;28;2260;-77
2023/09/10 08:14:17;;;;;;;;;;;;;;;16.73;71.19;100644.56;4974734;28;2233;-75
2023/09/10 08:17:09;;;;;;;;;;;;;;;16.73;71.21;100637.22;4974454;28;2414;-76
2023/09/10 08:20:01;;;;;;;;;;;;;;;16.74;71.32;100632.63;4972149;28;4661;-75
2023/09/10 08:22:53;;;;;;;;;;;;;;;16.73;71.34;100634.50;4971885;28;2375;-77
2023/09/10 08:25:45;;;;;;;;;;;;;;;16.73;71.22;100629.06;4972846;28;2324;-75
2023/09/10 08:28:37;;;;;;;;;;;;;;;16.73;71.23;100625.53;4975549;28;2386;-78
2023/09/10 08:31:29;;;;;;;;;;;;;;;16.73;71.22;100629.06;4987126;28;2195;-75
2023/09/10 08:34:21;;;;;;;;;;;;;;;16.73;71.19;100634.50;4973674;28;2383;-79
2023/09/10 08:37:13;;;;;;;;;;;;;;;16.74;71.26;100638.06;4972350;28;2236;-77
2023/09/10 08:40:08;;;;;;;;;;;;;;;16.73;71.30;100645.38;4974677;28;2368;-76
2023/09/10 08:42:59;;;;;;;;;;;;;;;16.73;71.28;100639.94;4971520;28;2270;-76
2023/09/10 08:45:51;;;;;;;;;;;;;;;16.73;71.37;100644.56;4973666;28;2249;-76
2023/09/10 08:48:43;;;;;;;;;;;;;;;16.73;71.01;100644.56;5011511;28;2321;-79
2023/09/10 08:51:35;;;;;;;;;;;;;;;16.73;70.92;100652.72;5011792;28;2358;-78
2023/09/10 08:54:27;;;;;;;;;;;;;;;16.74;71.30;100646.22;5025699;28;2245;-74
2023/09/10 08:57:19;;;;;;;;;;;;;;;16.72;71.49;100642.94;5030315;28;1520;-77
2023/09/10 09:00:12;;;;;;;;;;;;;;;16.72;71.49;100645.66;5027042;28;2174;-79
2023/09/10 09:03:04;;;;;;;;;;;;;;;16.72;71.37;100643.75;5010309;28;2295;-76
2023/09/10 09:05:56;;;;;;;;;;;;;;;16.73;71.33;100658.16;5010771;28;2472;-76
2023/09/10 09:08:48;;;;;;;;;;;;;;;16.72;71.48;100648.38;5022707;28;2703;-77
2023/09/10 09:11:40;;;;;;;;;;;;;;;16.71;71.51;100639.41;5015116;28;2511;-76
2023/09/10 09:14:32;;;;;;;;;;;;;;;16.73;71.54;100639.13;5013347;28;2225;-77
2023/09/10 09:17:23;;;;;;;;;;;;;;;16.73;71.57;100647.28;5016462;28;2305;-75
2023/09/10 09:20:15;;;;;;;;;;;;;;;16.73;71.59;100655.44;5013850;28;3526;-76
2023/09/10 09:23:07;;;;;;;;;;;;;;;16.72;71.58;100643.75;5016328;28;2305;-76
2023/09/10 09:25:59;;;;;;;;;;;;;;;16.73;71.67;100644.56;5017239;28;2321;-75
2023/09/10 09:28:51;;;;;;;;;;;;;;;16.72;71.74;100641.03;5020501;28;2206;-78
2023/09/10 09:31:43;;;;;;;;;;;;;;;16.72;71.79;100643.75;5019257;28;2555;-77
2023/09/10 09:34:35;;;;;;;;;;;;;;;16.72;71.67;100642.94;5017139;28;2127;-77
2023/09/10 09:37:28;;;;;;;;;;;;;;;16.72;71.82;100641.03;5015275;28;2471;-77
2023/09/10 09:40:21;;;;;;;;;;;;;;;16.73;71.66;100639.13;5014925;28;2258;-76
2023/09/10 09:43:13;;;;;;;;;;;;;;;16.72;71.72;100646.47;5012972;28;2131;-78
2023/09/10 09:46:05;;;;;;;;;;;;;;;16.72;71.61;100645.66;5012034;28;2147;-76
2023/09/10 09:48:57;;;;;;;;;;;;;;;16.72;71.60;100648.38;5022496;28;2139;-77
2023/09/10 09:51:49;;;;;;;;;;;;;;;16.73;71.56;100641.84;5015907;28;2106;-76
2023/09/10 09:54:40;;;;;;;;;;;;;;;16.72;71.52;100641.03;5016508;28;2232;-75
2023/09/10 09:57:32;;;;;;;;;;;;;;;16.72;71.66;100638.31;5022470;28;2100;-78
2023/09/10 10:00:24;;;;;;;;;;;;;;;16.72;71.53;100642.94;5029195;28;2135;-77
2023/09/10 10:03:16;;;;;;;;;;;;;;;16.72;71.47;100641.03;5030675;28;1464;-78
2023/09/10 10:06:08;;;;;;;;;;;;;;;16.73;71.49;100641.84;5031259;28;1968;-81
2023/09/10 10:09:00;;;;;;;;;;;;;;;16.73;71.58;100641.84;5030492;28;1849;-78
2023/09/10 10:11:51;;;;;;;;;;;;;;;16.74;71.49;100643.50;5023784;28;1984;-76
2023/09/10 10:14:43;;;;;;;;;;;;;;;16.72;71.60;100641.03;5030380;28;1497;-76
2023/09/10 10:17:35;;;;;;;;;;;;;;;16.73;71.56;100639.94;5026462;28;1636;-77
2023/09/10 10:20:27;;;;;;;;;;;;;;;16.73;71.57;100636.41;5021139;28;1750;-77
2023/09/10 10:23:19;;;;;;;;;;;;;;;16.72;71.49;100632.88;5027232;28;1574;-77
2023/09/10 10:26:11;;;;;;;;;;;;;;;16.73;71.49;100639.13;5028222;28;1969;-75
2023/09/10 10:29:03;;;;;;;;;;;;;;;16.73;71.35;100639.13;5030108;28;1976;-76
2023/09/10 10:31:55;;;;;;;;;;;;;;;16.76;71.49;100639.47;5018282;28;6214;-76
2023/09/10 10:34:47;;;;;;;;;;;;;;;16.75;71.47;100635.09;5027771;28;5225;-76
2023/09/10 10:37:39;;;;;;;;;;;;;;;16.75;71.67;100640.53;5032532;28;5339;-75
2023/09/10 10:40:31;;;;;;;;;;;;;;;16.74;71.62;100633.44;5029776;28;1736;-76
2023/09/10 10:43:23;;;;;;;;;;;;;;;16.76;71.99;100633.22;5028937;28;1894;-78
2023/09/10 10:46:15;;;;;;;;;;;;;;;16.76;72.01;100634.03;5026301;28;1969;-78
2023/09/10 10:49:07;;;;;;;;;;;;;;;16.75;72.22;100635.09;5029033;28;4685;-76
2023/09/10 10:51:59;;;;;;;;;;;;;;;16.76;72.22;100642.19;5032954;28;1618;-76
2023/09/10 10:54:51;;;;;;;;;;;;;;;16.77;72.01;100637.59;5032740;28;1420;-77
2023/09/10 10:57:43;;;;;;;;;;;;;;;16.77;72.22;100634.88;5011898;28;2118;-76
2023/09/10 11:00:34;;;;;;;;;;;;;;;16.78;72.21;100631.06;5011089;28;2230;-76
2023/09/10 11:03:26;;;;;;;;;;;;;;;16.78;72.18;100633.78;5015635;28;2524;-75
2023/09/10 11:06:18;;;;;;;;;;;;;;;16.79;72.17;100635.41;5012692;28;2245;-74
2023/09/10 11:09:10;;;;;;;;;;;;;;;16.79;71.96;100632.69;5012756;28;2060;-77
2023/09/10 11:12:01;;;;;;;;;;;;;;;16.79;72.14;100633.53;5012776;28;2277;-78
2023/09/10 11:14:53;;;;;;;;;;;;;;;16.80;72.03;100629.72;5021178;28;2128;-78
2023/09/10 11:17:45;;;;;;;;;;;;;;;16.80;72.17;100629.72;5032657;28;1737;-76
2023/09/10 11:20:37;;;;;;;;;;;;;;;16.80;72.07;100624.28;5022544;28;1939;-75
2023/09/10 11:23:29;;;;;;;;;;;;;;;16.81;72.09;100625.09;5027355;28;1581;-75
2023/09/10 11:26:21;;;;;;;;;;;;;;;16.82;71.78;100617.75;5022207;28;1899;-75
2023/09/10 11:29:13;;;;;;;;;;;;;;;16.83;71.97;100619.41;5020949;28;1929;-78
2023/09/10 11:32:05;;;;;;;;;;;;;;;16.83;71.82;100614.78;5028099;28;2103;-77
2023/09/10 11:34:57;;;;;;;;;;;;;;;16.84;71.94;100619.16;5014640;28;2155;-76
2023/09/10 11:37:49;;;;;;;;;;;;;;;16.84;72.09;100624.59;5011668;28;2106;-76
2023/09/10 11:40:41;;;;;;;;;;;;;;;16.84;71.92;100613.69;5012449;28;2570;-75
2023/09/10 11:43:33;;;;;;;;;;;;;;;16.85;71.92;100611.78;5012464;28;2160;-76
2023/09/10 11:46:25;;;;;;;;;;;;;;;16.85;72.05;100615.34;5014774;28;2233;-77
2023/09/10 11:49:17;;;;;;;;;;;;;;;16.85;72.07;100607.16;5010697;28;3272;-76
2023/09/10 11:52:09;;;;;;;;;;;;;;;16.87;71.93;100612.38;5011864;28;3038;-76
2023/09/10 11:55:01;;;;;;;;;;;;;;;16.87;72.06;100617.81;5012353;28;2461;-77
2023/09/10 11:57:53;;;;;;;;;;;;;;;16.87;72.11;100612.38;5011677;28;2198;-76
2023/09/10 12:00:45;;;;;;;;;;;;;;;16.88;72.03;100614.81;5011846;28;2152;-76
2023/09/10 12:03:37;;;;;;;;;;;;;;;16.88;72.06;100614.81;5012527;28;2135;-75
2023/09/10 12:06:28;;;;;;;;;;;;;;;16.89;72.05;100611.03;5009738;28;2163;-75
2023/09/10 12:09:20;;;;;;;;;;;;;;;16.90;71.89;100614.56;5014350;28;2136;-75
2023/09/10 12:12:11;;;;;;;;;;;;;;;16.91;71.97;100617.03;5011481;28;2682;-75
2023/09/10 12:15:03;;;;;;;;;;;;;;;16.92;72.06;100615.94;5012028;28;2127;-76
2023/09/10 12:17:55;;;;;;;;;;;;;;;16.91;72.13;100611.59;5012696;28;2120;-77
2023/09/10 12:20:46;;;;;;;;;;;;;;;16.92;72.07;100607.78;5017110;28;2198;-76
2023/09/10 12:23:38;;;;;;;;;;;;;;;16.94;72.13;100613.78;5013079;28;2090;-77
2023/09/10 12:26:30;;;;;;;;;;;;;;;16.94;72.19;100604.78;5011687;28;2115;-77
2023/09/10 12:29:22;;;;;;;;;;;;;;;16.95;72.21;100603.72;5014399;28;2338;-75
2023/09/10 12:32:14;;;;;;;;;;;;;;;16.96;72.11;100605.34;5010378;28;2130;-77
2023/09/10 12:35:06;;;;;;;;;;;;;;;16.96;72.14;100608.91;5010625;28;2127;-77
2023/09/10 12:37:57;;;;;;;;;;;;;;;16.97;72.30;100607.00;5011058;28;2175;-78
2023/09/10 12:40:50;;;;;;;;;;;;;;;16.98;72.25;100608.66;5012273;28;2478;-76
2023/09/10 12:43:41;;;;;;;;;;;;;;;16.99;72.29;100618.44;5016368;28;2371;-76
2023/09/10 12:46:34;;;;;;;;;;;;;;;17.01;72.29;100624.44;5010756;28;2114;-77
2023/09/10 12:49:25;;;;;;;;;;;;;;;17.00;72.30;100620.91;5013773;28;2149;-77
2023/09/10 12:52:17;;;;;;;;;;;;;;;17.02;72.17;100621.44;5010743;28;2299;-76
2023/09/10 12:55:09;;;;;;;;;;;;;;;17.01;72.29;100608.94;5010335;28;2095;-74
2023/09/10 12:58:01;;;;;;;;;;;;;;;17.03;72.16;100612.22;5014087;28;2149;-76
2023/09/10 13:00:53;;;;;;;;;;;;;;;17.04;72.48;100607.59;5016834;28;4829;-77
2023/09/10 13:03:45;;;;;;;;;;;;;;;17.05;72.44;100613.84;5016856;28;5661;-76
2023/09/10 13:06:37;;;;;;;;;;;;;;;17.07;72.47;100609.00;5016327;28;2751;-75
2023/09/10 13:09:29;;;;;;;;;;;;;;;17.07;72.47;100617.16;5025173;28;1789;-76
2023/09/10 13:12:22;;;;;;;;;;;;;;;17.08;72.28;100597.00;5035146;28;879;-77
2023/09/10 13:15:14;;;;;;;;;;;;;;;17.09;72.62;100598.63;5029923;28;1537;-76
2023/09/10 13:18:06;;;;;;;;;;;;;;;17.09;72.55;100596.75;5034748;28;1411;-77
2023/09/10 13:20:57;;;;;;;;;;;;;;;17.11;72.62;100596.50;5030787;28;4586;-76
2023/09/10 13:23:49;;;;;;;;;;;;;;;17.13;72.63;100599.78;5034432;28;1555;-77
2023/09/10 13:26:41;;;;;;;;;;;;;;;17.13;72.71;100592.44;5026356;28;1906;-75
2023/09/10 13:29:33;;;;;;;;;;;;;;;17.14;72.51;100588.63;5032750;28;1949;-78
2023/09/10 13:32:24;;;;;;;;;;;;;;;17.15;72.74;100593.00;5025146;28;2095;-77
2023/09/10 13:35:16;;;;;;;;;;;;;;;17.15;72.69;100584.81;5029301;28;966;-77
2023/09/10 13:38:08;;;;;;;;;;;;;;;17.32;72.96;100590.06;5027713;28;1977;-75
2023/09/10 13:41:00;;;;;;;;;;;;;;;17.28;73.03;100583.53;5036121;28;1220;-75
2023/09/10 13:43:52;;;;;;;;;;;;;;;17.25;73.81;100590.31;5026330;28;2102;-75
2023/09/10 13:46:45;;;;;;;;;;;;;;;17.25;73.90;100593.03;5011541;28;2210;-75
2023/09/10 13:49:37;;;;;;;;;;;;;;;17.26;74.09;100591.13;5014266;28;2571;-76
2023/09/10 13:52:28;;;;;;;;;;;;;;;17.26;74.11;100596.56;5020884;28;2222;-76
2023/09/10 13:55:20;;;;;;;;;;;;;;;17.28;74.26;100591.69;5018172;28;2198;-76
2023/09/10 13:58:12;;;;;;;;;;;;;;;17.29;74.25;100597.97;5024089;28;3615;-76
2023/09/10 14:01:07;;;;;;;;;;;;;;;17.31;74.39;100595.81;5027875;28;3763;-75
2023/09/10 14:03:59;;;;;;;;;;;;;;;17.32;74.22;100597.44;5028249;28;3731;-75
2023/09/10 14:06:50;;;;;;;;;;;;;;;17.32;74.13;100598.25;5028971;28;1914;-75
2023/09/10 14:09:42;;;;;;;;;;;;;;;17.33;74.14;100591.75;5027743;28;1301;-75
2023/09/10 14:12:35;;;;;;;;;;;;;;;17.35;74.04;100594.19;5024886;28;1094;-74
2023/09/10 14:15:27;;;;;;;;;;;;;;;17.36;74.21;100595.84;5019984;28;2364;-75
2023/09/10 14:18:18;;;;;;;;;;;;;;;17.36;74.13;100590.41;5027314;28;2503;-74
2023/09/10 14:21:10;;;;;;;;;;;;;;;17.37;73.99;100592.03;5031537;28;1638;-74
2023/09/10 14:24:02;;;;;;;;;;;;;;;17.38;74.26;100588.22;5029830;28;1414;-76
2023/09/10 14:26:53;;;;;;;;;;;;;;;17.39;73.95;100589.88;5024567;28;1902;-75
2023/09/10 14:29:45;;;;;;;;;;;;;;;17.40;74.08;100595.03;5029623;28;1735;-74
2023/09/10 14:32:37;;;;;;;;;;;;;;;17.41;74.24;100599.41;5025371;28;1254;-76
2023/09/10 14:35:30;;;;;;;;;;;;;;;17.42;73.95;100592.06;5039694;28;2027;-76
2023/09/10 14:38:22;;;;;;;;;;;;;;;17.44;74.07;100589.88;5032393;28;1661;-74
2023/09/10 14:41:13;;;;;;;;;;;;;;;17.44;74.13;100589.88;5023416;28;1008;-75
2023/09/10 14:44:07;;;;;;;;;;;;;;;17.46;74.18;100590.44;5030545;28;1656;-76
2023/09/10 14:46:59;;;;;;;;;;;;;;;17.48;74.17;100596.44;5026280;28;1970;-74
2023/09/10 14:49:51;;;;;;;;;;;;;;;17.49;74.01;100598.06;5031435;28;1465;-74
2023/09/10 14:52:43;;;;;;;;;;;;;;;17.50;74.01;100588.84;5033877;28;1522;-73
2023/09/10 14:55:36;;;;;;;;;;;;;;;17.49;73.99;100596.16;5032896;28;2232;-75